Kezdőlap
METAR-TAF:

METAR-TAF

Repülőterek :

Novoszibirszk, Oroszország

földrajzi szélesség: 55-01N, földrajzi hosszúság: 082-38E, magasság: 111 m

Jelenlegi meteorológiai megfigyelések

A jelentés 18 perccel ezelõtt készült, 10:00 UTC
Nyugat-délnyugati szél 8 kt, dél-délkeleti és nyugati között változik
Hőmérséklet 12°C
Páratartalom 19%
Légköri nyomás 1017 hPa
Látótávolság 10 km, vagy több
felhőtlen 1500 m magasságban, és nincs gomolyfelhõ

METAR: UNNT 231000Z 24004MPS 160V280 CAVOK 12/M11 Q1017 R25/090070 R34/090070 NOSIG RMK QFE753/1004

Idő: 17:18 (10:18 UTC)

Előrejelzés

A jelentés 2 órával és 18 perccel ezelõtt készült, 08:00 UTC
Az előrejelzés 23-én 09 óra UTC és 24-én 09 óra UTC között érvényes
Dél-délnyugati szél 6 kt széllökések: 16 kt
Látótávolság 10 km, vagy több
felhőtlen 1500 m magasságban, és nincs gomolyfelhõ

TAF: UNNT 230800Z 2309/2409 20003G08MPS CAVOK

Meteorológiai megfigyelések és előrejelzések több, mint 4000 repülőtéren (METAR és TAF jelentéseket).

A térképen piros és sárga pontok jelzik az elérhető meteorológiai állomásokat.

Mozgassa az egeret a pont fölött, hogy megjelenjen az állomás neve.

Azután kattintson az időjárási megfigyelések és előrejelzések megtekintéséhez.

A térkép megváltoztatása: kattintson a fekete keresztel jelölt zöld gombra ráközelítéshez, a vonallal jelölt zöld gombra távolításhoz, vagy a zöld nyilakra a szomszédos térképek eléréséhez.


METAR-TAF: